Fair Grove, Missouri
Current Conditions -  °F | °C
As of 7:20 PM on Sunday 23 Nov 2014 (Local Time) from KSGF Reporting Station
Moderate Rain Moderate Rain  
Wind Chill: 56°   Ceiling: 2900
Heat Index: 56°   Visibility: 3mi
Dew Point: 54°   Wind: 9mph
Humidity: 93%   Direction: 130°SE
Pressure: 29.28"   Gusts: NA
Location:  37.38°N, 93.15°W
Report Text: KSGF 240120Z 13008KT 3SM RA BR FEW008 BKN029 OVC045 13/12 A2928 RMK AO2 LTG DSNT SE P0012 T01330122
Loading
Personal Weather Stations






























Interactive Weather Map New forecast layout! Learn more

10-Day Weather Forecast

Advertisements
Track Severe Weather on mobile